sensor_id;sensor_type;location;lat;lon;timestamp;pressure;altitude;pressure_sealevel;temperature;humidity
9307;BME280;4691;47.612;7.610;2023-04-19T00:00:40;98486.88;;;8.39;100.00
9307;BME280;4691;47.612;7.610;2023-04-19T00:03:06;98481.03;;;8.34;100.00
9307;BME280;4691;47.612;7.610;2023-04-19T00:05:32;98484.03;;;8.29;100.00
9307;BME280;4691;47.612;7.610;2023-04-19T00:07:58;98482.56;;;8.25;100.00
9307;BME280;4691;47.612;7.610;2023-04-19T00:10:23;98477.44;;;8.22;100.00
9307;BME280;4691;47.612;7.610;2023-04-19T00:12:49;98472.34;;;8.19;100.00
9307;BME280;4691;47.612;7.610;2023-04-19T00:15:14;98461.31;;;8.12;100.00
9307;BME280;4691;47.612;7.610;2023-04-19T00:17:39;98465.91;;;8.10;100.00
9307;BME280;4691;47.612;7.610;2023-04-19T00:20:06;98454.41;;;8.10;100.00
9307;BME280;4691;47.612;7.610;2023-04-19T00:22:32;98453.75;;;8.06;100.00
9307;BME280;4691;47.612;7.610;2023-04-19T00:25:00;98449.63;;;8.02;100.00
9307;BME280;4691;47.612;7.610;2023-04-19T00:27:25;98451.03;;;7.95;100.00
9307;BME280;4691;47.612;7.610;2023-04-19T00:29:50;98431.88;;;7.90;100.00
9307;BME280;4691;47.612;7.610;2023-04-19T00:32:16;98440.34;;;7.83;100.00
9307;BME280;4691;47.612;7.610;2023-04-19T00:34:41;98432.56;;;7.80;100.00
9307;BME280;4691;47.612;7.610;2023-04-19T00:37:09;98428.66;;;7.73;100.00
9307;BME280;4691;47.612;7.610;2023-04-19T00:39:35;98420.03;;;7.70;100.00
9307;BME280;4691;47.612;7.610;2023-04-19T00:42:01;98419.41;;;7.66;100.00
9307;BME280;4691;47.612;7.610;2023-04-19T00:44:27;98424.97;;;7.63;100.00
9307;BME280;4691;47.612;7.610;2023-04-19T00:46:52;98422.31;;;7.63;100.00
9307;BME280;4691;47.612;7.610;2023-04-19T00:49:19;98416.47;;;7.58;100.00
9307;BME280;4691;47.612;7.610;2023-04-19T00:51:45;98410.16;;;7.59;100.00
9307;BME280;4691;47.612;7.610;2023-04-19T00:54:12;98407.72;;;7.56;100.00
9307;BME280;4691;47.612;7.610;2023-04-19T00:56:38;98396.34;;;7.54;100.00
9307;BME280;4691;47.612;7.610;2023-04-19T00:59:04;98408.06;;;7.51;100.00
9307;BME280;4691;47.612;7.610;2023-04-19T01:01:30;98395.09;;;7.47;100.00
9307;BME280;4691;47.612;7.610;2023-04-19T01:03:55;98393.81;;;7.39;100.00
9307;BME280;4691;47.612;7.610;2023-04-19T01:06:20;98372.75;;;7.36;100.00
9307;BME280;4691;47.612;7.610;2023-04-19T01:08:47;98382.03;;;7.31;100.00
9307;BME280;4691;47.612;7.610;2023-04-19T01:11:12;98370.88;;;7.26;100.00
9307;BME280;4691;47.612;7.610;2023-04-19T01:13:37;98373.63;;;7.24;100.00
9307;BME280;4691;47.612;7.610;2023-04-19T01:16:02;98372.91;;;7.22;100.00
9307;BME280;4691;47.612;7.610;2023-04-19T01:18:28;98374.19;;;7.16;100.00
9307;BME280;4691;47.612;7.610;2023-04-19T01:20:58;98363.03;;;7.11;100.00
9307;BME280;4691;47.612;7.610;2023-04-19T01:23:23;98373.03;;;7.08;100.00
9307;BME280;4691;47.612;7.610;2023-04-19T01:25:48;98358.06;;;7.07;100.00
9307;BME280;4691;47.612;7.610;2023-04-19T01:28:14;98364.31;;;7.06;100.00
9307;BME280;4691;47.612;7.610;2023-04-19T01:30:39;98361.13;;;7.01;100.00
9307;BME280;4691;47.612;7.610;2023-04-19T01:33:05;98361.25;;;6.99;100.00
9307;BME280;4691;47.612;7.610;2023-04-19T01:35:30;98360.91;;;6.91;100.00
9307;BME280;4691;47.612;7.610;2023-04-19T01:37:55;98361.13;;;6.88;100.00
9307;BME280;4691;47.612;7.610;2023-04-19T01:40:24;98353.47;;;6.83;100.00
9307;BME280;4691;47.612;7.610;2023-04-19T01:42:50;98362.53;;;6.81;100.00
9307;BME280;4691;47.612;7.610;2023-04-19T01:45:15;98364.34;;;6.80;100.00
9307;BME280;4691;47.612;7.610;2023-04-19T01:47:41;98372.31;;;6.80;100.00
9307;BME280;4691;47.612;7.610;2023-04-19T01:50:06;98372.44;;;6.79;100.00
9307;BME280;4691;47.612;7.610;2023-04-19T01:52:32;98371.56;;;6.78;100.00
9307;BME280;4691;47.612;7.610;2023-04-19T01:54:57;98371.56;;;6.78;100.00
9307;BME280;4691;47.612;7.610;2023-04-19T01:57:22;98359.47;;;6.74;100.00
9307;BME280;4691;47.612;7.610;2023-04-19T01:59:48;98352.41;;;6.73;100.00
9307;BME280;4691;47.612;7.610;2023-04-19T02:02:14;98358.09;;;6.68;100.00
9307;BME280;4691;47.612;7.610;2023-04-19T02:04:39;98361.91;;;6.64;100.00
9307;BME280;4691;47.612;7.610;2023-04-19T02:07:05;98367.31;;;6.63;100.00
9307;BME280;4691;47.612;7.610;2023-04-19T02:09:34;98374.34;;;6.64;100.00
9307;BME280;4691;47.612;7.610;2023-04-19T02:11:59;98383.91;;;6.66;100.00
9307;BME280;4691;47.612;7.610;2023-04-19T02:14:24;98391.75;;;6.68;100.00
9307;BME280;4691;47.612;7.610;2023-04-19T02:19:31;98225.75;;;6.73;100.00
9307;BME280;4691;47.612;7.610;2023-04-19T02:21:56;98251.34;;;6.74;100.00
9307;BME280;4691;47.612;7.610;2023-04-19T02:24:24;98262.22;;;6.71;100.00
9307;BME280;4691;47.612;7.610;2023-04-19T02:26:50;98274.66;;;6.71;100.00
9307;BME280;4691;47.612;7.610;2023-04-19T02:29:15;98271.47;;;6.66;100.00
9307;BME280;4691;47.612;7.610;2023-04-19T02:31:41;98270.19;;;6.59;100.00
9307;BME280;4691;47.612;7.610;2023-04-19T02:34:06;98279.09;;;6.58;100.00
9307;BME280;4691;47.612;7.610;2023-04-19T02:36:32;98275.59;;;6.57;100.00
9307;BME280;4691;47.612;7.610;2023-04-19T02:38:57;98277.19;;;6.60;100.00
9307;BME280;4691;47.612;7.610;2023-04-19T02:41:23;98291.44;;;6.59;100.00
9307;BME280;4691;47.612;7.610;2023-04-19T02:43:48;98295.91;;;6.58;100.00
9307;BME280;4691;47.612;7.610;2023-04-19T02:46:14;98292.38;;;6.58;100.00
9307;BME280;4691;47.612;7.610;2023-04-19T02:48:39;98302.50;;;6.52;100.00
9307;BME280;4691;47.612;7.610;2023-04-19T02:51:04;98301.97;;;6.47;100.00
9307;BME280;4691;47.612;7.610;2023-04-19T02:53:30;98308.44;;;6.43;100.00
9307;BME280;4691;47.612;7.610;2023-04-19T02:55:55;98310.78;;;6.35;100.00
9307;BME280;4691;47.612;7.610;2023-04-19T02:58:20;98307.38;;;6.33;100.00
9307;BME280;4691;47.612;7.610;2023-04-19T03:00:46;98321.81;;;6.29;100.00
9307;BME280;4691;47.612;7.610;2023-04-19T03:03:11;98321.81;;;6.29;100.00
9307;BME280;4691;47.612;7.610;2023-04-19T03:05:36;98328.84;;;6.30;100.00
9307;BME280;4691;47.612;7.610;2023-04-19T03:08:01;98339.47;;;6.30;100.00
9307;BME280;4691;47.612;7.610;2023-04-19T03:10:27;98348.59;;;6.26;100.00
9307;BME280;4691;47.612;7.610;2023-04-19T03:12:52;98349.63;;;6.23;100.00
9307;BME280;4691;47.612;7.610;2023-04-19T03:15:18;98343.69;;;6.20;100.00
9307;BME280;4691;47.612;7.610;2023-04-19T03:17:44;98350.47;;;6.24;100.00
9307;BME280;4691;47.612;7.610;2023-04-19T03:20:09;98353.13;;;6.24;100.00
9307;BME280;4691;47.612;7.610;2023-04-19T03:22:37;98353.88;;;6.26;100.00
9307;BME280;4691;47.612;7.610;2023-04-19T03:25:04;98352.84;;;6.28;100.00
9307;BME280;4691;47.612;7.610;2023-04-19T03:27:29;98356.47;;;6.40;100.00
9307;BME280;4691;47.612;7.610;2023-04-19T03:29:55;98362.19;;;6.47;100.00
9307;BME280;4691;47.612;7.610;2023-04-19T03:32:21;98368.38;;;6.47;100.00
9307;BME280;4691;47.612;7.610;2023-04-19T03:34:46;98374.75;;;6.58;100.00
9307;BME280;4691;47.612;7.610;2023-04-19T03:37:11;98373.38;;;6.65;100.00
9307;BME280;4691;47.612;7.610;2023-04-19T03:39:36;98369.03;;;6.64;100.00
9307;BME280;4691;47.612;7.610;2023-04-19T03:42:02;98349.22;;;6.68;100.00
9307;BME280;4691;47.612;7.610;2023-04-19T03:44:30;98341.47;;;6.65;100.00
9307;BME280;4691;47.612;7.610;2023-04-19T03:46:56;98327.34;;;6.64;100.00
9307;BME280;4691;47.612;7.610;2023-04-19T03:49:21;98324.78;;;6.63;100.00
9307;BME280;4691;47.612;7.610;2023-04-19T03:51:47;98314.16;;;6.63;100.00
9307;BME280;4691;47.612;7.610;2023-04-19T03:54:12;98308.66;;;6.66;100.00
9307;BME280;4691;47.612;7.610;2023-04-19T03:56:37;98304.06;;;6.68;100.00
9307;BME280;4691;47.612;7.610;2023-04-19T03:59:02;98310.97;;;6.70;100.00
9307;BME280;4691;47.612;7.610;2023-04-19T04:01:28;98301.75;;;6.76;100.00
9307;BME280;4691;47.612;7.610;2023-04-19T04:03:53;98311.84;;;6.71;100.00
9307;BME280;4691;47.612;7.610;2023-04-19T04:06:18;98313.31;;;6.75;100.00
9307;BME280;4691;47.612;7.610;2023-04-19T04:08:44;98306.09;;;6.77;100.00
9307;BME280;4691;47.612;7.610;2023-04-19T04:11:10;98308.84;;;6.75;100.00
9307;BME280;4691;47.612;7.610;2023-04-19T04:13:35;98315.34;;;6.84;100.00
9307;BME280;4691;47.612;7.610;2023-04-19T04:16:01;98316.09;;;6.86;100.00
9307;BME280;4691;47.612;7.610;2023-04-19T04:18:27;98316.94;;;6.87;100.00
9307;BME280;4691;47.612;7.610;2023-04-19T04:20:52;98307.88;;;6.89;100.00
9307;BME280;4691;47.612;7.610;2023-04-19T04:23:18;98310.03;;;6.84;100.00
9307;BME280;4691;47.612;7.610;2023-04-19T04:25:45;98321.41;;;6.86;100.00
9307;BME280;4691;47.612;7.610;2023-04-19T04:28:11;98323.31;;;6.84;100.00
9307;BME280;4691;47.612;7.610;2023-04-19T04:30:37;98326.50;;;6.89;100.00
9307;BME280;4691;47.612;7.610;2023-04-19T04:33:02;98332.22;;;6.83;100.00
9307;BME280;4691;47.612;7.610;2023-04-19T04:35:28;98336.47;;;6.86;100.00
9307;BME280;4691;47.612;7.610;2023-04-19T04:37:54;98343.06;;;6.80;100.00
9307;BME280;4691;47.612;7.610;2023-04-19T04:40:20;98343.28;;;6.77;100.00
9307;BME280;4691;47.612;7.610;2023-04-19T04:42:45;98346.91;;;6.76;100.00
9307;BME280;4691;47.612;7.610;2023-04-19T04:45:10;98352.41;;;6.73;100.00
9307;BME280;4691;47.612;7.610;2023-04-19T04:47:37;98351.03;;;6.67;100.00
9307;BME280;4691;47.612;7.610;2023-04-19T04:50:02;98342.66;;;6.61;100.00
9307;BME280;4691;47.612;7.610;2023-04-19T04:52:28;98331.38;;;6.57;100.00
9307;BME280;4691;47.612;7.610;2023-04-19T04:54:54;98332.78;;;6.50;100.00
9307;BME280;4691;47.612;7.610;2023-04-19T04:57:20;98334.91;;;6.45;100.00
9307;BME280;4691;47.612;7.610;2023-04-19T04:59:45;98320.97;;;6.41;100.00
9307;BME280;4691;47.612;7.610;2023-04-19T05:02:13;98315.88;;;6.38;100.00
9307;BME280;4691;47.612;7.610;2023-04-19T05:04:38;98309.06;;;6.34;100.00
9307;BME280;4691;47.612;7.610;2023-04-19T05:07:03;98305.78;;;6.30;100.00
9307;BME280;4691;47.612;7.610;2023-04-19T05:09:28;98310.25;;;6.30;100.00
9307;BME280;4691;47.612;7.610;2023-04-19T05:11:54;98325.75;;;6.36;100.00
9307;BME280;4691;47.612;7.610;2023-04-19T05:14:19;98328.19;;;6.39;100.00
9307;BME280;4691;47.612;7.610;2023-04-19T05:16:44;98327.03;;;6.43;100.00
9307;BME280;4691;47.612;7.610;2023-04-19T05:19:10;98315.25;;;6.47;100.00
9307;BME280;4691;47.612;7.610;2023-04-19T05:21:35;98312.91;;;6.56;100.00
9307;BME280;4691;47.612;7.610;2023-04-19T05:24:00;98320.75;;;6.70;100.00
9307;BME280;4691;47.612;7.610;2023-04-19T05:26:26;98299.28;;;6.73;100.00
9307;BME280;4691;47.612;7.610;2023-04-19T05:28:51;98302.28;;;6.81;100.00
9307;BME280;4691;47.612;7.610;2023-04-19T05:31:16;98298.19;;;6.88;100.00
9307;BME280;4691;47.612;7.610;2023-04-19T05:33:42;98305.63;;;6.96;100.00
9307;BME280;4691;47.612;7.610;2023-04-19T05:36:07;98290.09;;;7.03;100.00
9307;BME280;4691;47.612;7.610;2023-04-19T05:38:33;98293.28;;;7.08;100.00
9307;BME280;4691;47.612;7.610;2023-04-19T05:40:58;98297.06;;;7.16;100.00
9307;BME280;4691;47.612;7.610;2023-04-19T05:43:23;98302.34;;;7.29;100.00
9307;BME280;4691;47.612;7.610;2023-04-19T05:45:49;98296.13;;;7.41;100.00
9307;BME280;4691;47.612;7.610;2023-04-19T05:48:14;98300.56;;;7.54;100.00
9307;BME280;4691;47.612;7.610;2023-04-19T05:50:39;98306.41;;;7.59;100.00
9307;BME280;4691;47.612;7.610;2023-04-19T05:53:05;98312.41;;;7.74;100.00
9307;BME280;4691;47.612;7.610;2023-04-19T05:55:30;98329.38;;;7.84;100.00
9307;BME280;4691;47.612;7.610;2023-04-19T05:57:56;98339.22;;;7.95;100.00
9307;BME280;4691;47.612;7.610;2023-04-19T06:00:21;98352.06;;;8.01;100.00
9307;BME280;4691;47.612;7.610;2023-04-19T06:02:46;98354.16;;;8.08;100.00
9307;BME280;4691;47.612;7.610;2023-04-19T06:05:11;98351.75;;;8.17;100.00
9307;BME280;4691;47.612;7.610;2023-04-19T06:07:37;98380.63;;;8.23;100.00
9307;BME280;4691;47.612;7.610;2023-04-19T06:10:02;98385.81;;;8.24;100.00
9307;BME280;4691;47.612;7.610;2023-04-19T06:12:28;98408.13;;;8.35;100.00
9307;BME280;4691;47.612;7.610;2023-04-19T06:14:53;98429.66;;;8.32;100.00
9307;BME280;4691;47.612;7.610;2023-04-19T06:17:18;98444.63;;;8.21;100.00
9307;BME280;4691;47.612;7.610;2023-04-19T06:19:49;98436.91;;;8.29;100.00
9307;BME280;4691;47.612;7.610;2023-04-19T06:22:14;98440.31;;;8.32;100.00
9307;BME280;4691;47.612;7.610;2023-04-19T06:24:39;98456.72;;;8.38;100.00
9307;BME280;4691;47.612;7.610;2023-04-19T06:27:04;98465.84;;;8.47;100.00
9307;BME280;4691;47.612;7.610;2023-04-19T06:29:30;98482.84;;;8.57;100.00
9307;BME280;4691;47.612;7.610;2023-04-19T06:31:55;98491.03;;;8.43;100.00
9307;BME280;4691;47.612;7.610;2023-04-19T06:34:20;98488.00;;;8.47;100.00
9307;BME280;4691;47.612;7.610;2023-04-19T06:36:45;98489.19;;;8.67;100.00
9307;BME280;4691;47.612;7.610;2023-04-19T06:39:11;98504.00;;;8.71;100.00
9307;BME280;4691;47.612;7.610;2023-04-19T06:41:36;98502.09;;;8.85;100.00
9307;BME280;4691;47.612;7.610;2023-04-19T06:44:01;98504.09;;;8.94;100.00
9307;BME280;4691;47.612;7.610;2023-04-19T06:46:27;98519.78;;;8.86;100.00
9307;BME280;4691;47.612;7.610;2023-04-19T06:48:52;98528.22;;;9.04;100.00
9307;BME280;4691;47.612;7.610;2023-04-19T06:51:18;98529.28;;;9.01;100.00
9307;BME280;4691;47.612;7.610;2023-04-19T06:53:43;98529.13;;;9.27;100.00
9307;BME280;4691;47.612;7.610;2023-04-19T06:56:09;98546.75;;;9.41;100.00
9307;BME280;4691;47.612;7.610;2023-04-19T06:58:34;98634.22;;;9.48;100.00
9307;BME280;4691;47.612;7.610;2023-04-19T07:01:00;98643.69;;;9.52;100.00
9307;BME280;4691;47.612;7.610;2023-04-19T07:03:27;98647.69;;;9.47;100.00
9307;BME280;4691;47.612;7.610;2023-04-19T07:05:52;98662.63;;;9.60;100.00
9307;BME280;4691;47.612;7.610;2023-04-19T07:08:20;98681.63;;;9.80;100.00
9307;BME280;4691;47.612;7.610;2023-04-19T07:10:45;98703.75;;;9.93;100.00
9307;BME280;4691;47.612;7.610;2023-04-19T07:13:10;98724.41;;;10.02;100.00
9307;BME280;4691;47.612;7.610;2023-04-19T07:15:36;98709.47;;;10.11;100.00
9307;BME280;4691;47.612;7.610;2023-04-19T07:18:01;98733.69;;;10.32;100.00
9307;BME280;4691;47.612;7.610;2023-04-19T07:20:26;98748.47;;;10.14;100.00
9307;BME280;4691;47.612;7.610;2023-04-19T07:22:52;98749.03;;;10.30;100.00
9307;BME280;4691;47.612;7.610;2023-04-19T07:25:17;98749.88;;;10.53;100.00
9307;BME280;4691;47.612;7.610;2023-04-19T07:27:42;98773.47;;;10.59;100.00
9307;BME280;4691;47.612;7.610;2023-04-19T07:30:08;98787.44;;;10.40;100.00
9307;BME280;4691;47.612;7.610;2023-04-19T07:32:33;98781.38;;;10.72;100.00
9307;BME280;4691;47.612;7.610;2023-04-19T07:34:59;98776.50;;;10.88;100.00
9307;BME280;4691;47.612;7.610;2023-04-19T07:37:25;98786.47;;;10.98;100.00
9307;BME280;4691;47.612;7.610;2023-04-19T07:39:50;98791.31;;;10.81;100.00
9307;BME280;4691;47.612;7.610;2023-04-19T07:42:15;98801.91;;;10.94;100.00
9307;BME280;4691;47.612;7.610;2023-04-19T07:44:40;98820.16;;;11.23;100.00
9307;BME280;4691;47.612;7.610;2023-04-19T07:47:06;98838.00;;;11.33;100.00
9307;BME280;4691;47.612;7.610;2023-04-19T07:49:31;98875.22;;;11.48;100.00
9307;BME280;4691;47.612;7.610;2023-04-19T07:52:01;98866.94;;;11.62;100.00
9307;BME280;4691;47.612;7.610;2023-04-19T07:54:27;98894.78;;;11.82;100.00
9307;BME280;4691;47.612;7.610;2023-04-19T07:56:53;98918.16;;;11.91;100.00
9307;BME280;4691;47.612;7.610;2023-04-19T07:59:18;98918.75;;;11.95;100.00
9307;BME280;4691;47.612;7.610;2023-04-19T08:01:43;98926.38;;;12.11;100.00
9307;BME280;4691;47.612;7.610;2023-04-19T08:04:09;98931.38;;;12.04;100.00
9307;BME280;4691;47.612;7.610;2023-04-19T08:06:35;98923.06;;;12.18;100.00
9307;BME280;4691;47.612;7.610;2023-04-19T08:09:02;98951.78;;;12.28;100.00
9307;BME280;4691;47.612;7.610;2023-04-19T08:11:27;98956.44;;;12.26;100.00
9307;BME280;4691;47.612;7.610;2023-04-19T08:13:53;98959.53;;;12.42;100.00
9307;BME280;4691;47.612;7.610;2023-04-19T08:16:18;98964.84;;;12.53;100.00
9307;BME280;4691;47.612;7.610;2023-04-19T08:18:43;98958.91;;;12.50;100.00
9307;BME280;4691;47.612;7.610;2023-04-19T08:21:10;98971.13;;;12.75;100.00
9307;BME280;4691;47.612;7.610;2023-04-19T08:23:35;98980.94;;;12.85;100.00
9307;BME280;4691;47.612;7.610;2023-04-19T08:26:00;98996.47;;;12.82;100.00
9307;BME280;4691;47.612;7.610;2023-04-19T08:28:26;98990.47;;;12.78;100.00
9307;BME280;4691;47.612;7.610;2023-04-19T08:30:51;98981.19;;;13.03;100.00
9307;BME280;4691;47.612;7.610;2023-04-19T08:33:16;99008.63;;;12.86;100.00
9307;BME280;4691;47.612;7.610;2023-04-19T08:35:42;99008.63;;;13.07;100.00
9307;BME280;4691;47.612;7.610;2023-04-19T08:38:09;98990.94;;;12.83;100.00
9307;BME280;4691;47.612;7.610;2023-04-19T08:40:40;98977.31;;;12.75;100.00
9307;BME280;4691;47.612;7.610;2023-04-19T08:43:05;98975.56;;;12.85;100.00
9307;BME280;4691;47.612;7.610;2023-04-19T08:45:31;98985.72;;;13.03;100.00
9307;BME280;4691;47.612;7.610;2023-04-19T08:47:57;98992.28;;;13.31;100.00
9307;BME280;4691;47.612;7.610;2023-04-19T08:50:24;98996.78;;;13.31;100.00
9307;BME280;4691;47.612;7.610;2023-04-19T08:52:49;98994.88;;;13.00;100.00
9307;BME280;4691;47.612;7.610;2023-04-19T08:55:14;98970.09;;;13.18;100.00
9307;BME280;4691;47.612;7.610;2023-04-19T08:57:40;98982.06;;;13.56;100.00
9307;BME280;4691;47.612;7.610;2023-04-19T09:00:06;98987.16;;;13.80;100.00
9307;BME280;4691;47.612;7.610;2023-04-19T09:02:47;99002.31;;;13.60;100.00
9307;BME280;4691;47.612;7.610;2023-04-19T09:05:13;98990.47;;;13.62;100.00
9307;BME280;4691;47.612;7.610;2023-04-19T09:07:39;99001.50;;;13.69;100.00
9307;BME280;4691;47.612;7.610;2023-04-19T09:10:05;99012.91;;;13.82;100.00
9307;BME280;4691;47.612;7.610;2023-04-19T09:12:32;99009.50;;;13.80;100.00
9307;BME280;4691;47.612;7.610;2023-04-19T09:14:59;99006.25;;;13.56;100.00
9307;BME280;4691;47.612;7.610;2023-04-19T09:17:24;99007.47;;;13.72;100.00
9307;BME280;4691;47.612;7.610;2023-04-19T09:19:50;99017.00;;;13.86;100.00
9307;BME280;4691;47.612;7.610;2023-04-19T09:22:15;99008.94;;;13.56;100.00
9307;BME280;4691;47.612;7.610;2023-04-19T09:24:40;99005.06;;;13.39;100.00
9307;BME280;4691;47.612;7.610;2023-04-19T09:27:06;98989.06;;;13.37;100.00
9307;BME280;4691;47.612;7.610;2023-04-19T09:29:31;98976.84;;;13.54;100.00
9307;BME280;4691;47.612;7.610;2023-04-19T09:31:58;98974.97;;;13.24;100.00
9307;BME280;4691;47.612;7.610;2023-04-19T09:34:23;98962.66;;;13.42;100.00
9307;BME280;4691;47.612;7.610;2023-04-19T09:36:49;98956.38;;;13.32;100.00
9307;BME280;4691;47.612;7.610;2023-04-19T09:39:33;98931.63;;;12.86;100.00
9307;BME280;4691;47.612;7.610;2023-04-19T09:42:00;98891.47;;;12.75;100.00
9307;BME280;4691;47.612;7.610;2023-04-19T09:44:25;98883.03;;;12.80;100.00
9307;BME280;4691;47.612;7.610;2023-04-19T09:46:52;98877.19;;;12.75;100.00
9307;BME280;4691;47.612;7.610;2023-04-19T09:49:19;98860.78;;;12.68;100.00
9307;BME280;4691;47.612;7.610;2023-04-19T09:51:51;98840.97;;;12.59;100.00
9307;BME280;4691;47.612;7.610;2023-04-19T09:54:18;98828.19;;;12.73;100.00
9307;BME280;4691;47.612;7.610;2023-04-19T09:56:45;98863.53;;;13.08;100.00
9307;BME280;4691;47.612;7.610;2023-04-19T09:59:11;98852.38;;;13.34;100.00
9307;BME280;4691;47.612;7.610;2023-04-19T10:01:47;98862.47;;;13.52;100.00
9307;BME280;4691;47.612;7.610;2023-04-19T10:04:15;98886.00;;;13.88;100.00
9307;BME280;4691;47.612;7.610;2023-04-19T10:06:48;98905.13;;;14.05;100.00
9307;BME280;4691;47.612;7.610;2023-04-19T10:09:14;98921.28;;;14.24;100.00
9307;BME280;4691;47.612;7.610;2023-04-19T10:11:43;98922.44;;;14.31;100.00
9307;BME280;4691;47.612;7.610;2023-04-19T10:14:12;98919.72;;;14.51;100.00
9307;BME280;4691;47.612;7.610;2023-04-19T10:16:38;98936.31;;;14.56;100.00
9307;BME280;4691;47.612;7.610;2023-04-19T10:19:06;98949.63;;;14.48;100.00
9307;BME280;4691;47.612;7.610;2023-04-19T10:21:33;98952.25;;;14.09;100.00
9307;BME280;4691;47.612;7.610;2023-04-19T10:23:59;98941.34;;;14.01;100.00
9307;BME280;4691;47.612;7.610;2023-04-19T10:26:26;98928.91;;;14.09;100.00
9307;BME280;4691;47.612;7.610;2023-04-19T10:28:53;98922.38;;;13.92;100.00
9307;BME280;4691;47.612;7.610;2023-04-19T10:31:20;98907.50;;;13.88;100.00
9307;BME280;4691;47.612;7.610;2023-04-19T10:33:48;98911.72;;;13.81;100.00
9307;BME280;4691;47.612;7.610;2023-04-19T10:36:14;98913.47;;;14.02;100.00
9307;BME280;4691;47.612;7.610;2023-04-19T10:41:08;98931.31;;;14.03;100.00
9307;BME280;4691;47.612;7.610;2023-04-19T10:43:39;98940.50;;;13.90;100.00
9307;BME280;4691;47.612;7.610;2023-04-19T10:46:07;98942.03;;;13.93;100.00
9307;BME280;4691;47.612;7.610;2023-04-19T10:48:35;98944.16;;;13.89;100.00
9307;BME280;4691;47.612;7.610;2023-04-19T10:51:11;98937.88;;;13.79;100.00
9307;BME280;4691;47.612;7.610;2023-04-19T10:56:17;98933.56;;;14.07;100.00
9307;BME280;4691;47.612;7.610;2023-04-19T11:04:14;98936.50;;;13.94;100.00
9307;BME280;4691;47.612;7.610;2023-04-19T11:09:27;98919.84;;;14.20;100.00
9307;BME280;4691;47.612;7.610;2023-04-19T11:12:06;98926.69;;;14.34;100.00
9307;BME280;4691;47.612;7.610;2023-04-19T11:14:34;98937.44;;;14.34;100.00
9307;BME280;4691;47.612;7.610;2023-04-19T11:17:02;98939.41;;;14.22;100.00
9307;BME280;4691;47.612;7.610;2023-04-19T11:19:28;98927.50;;;14.15;100.00
9307;BME280;4691;47.612;7.610;2023-04-19T11:21:57;98937.44;;;14.24;100.00
9307;BME280;4691;47.612;7.610;2023-04-19T11:24:22;98923.28;;;14.32;100.00
9307;BME280;4691;47.612;7.610;2023-04-19T11:26:47;98931.75;;;14.27;100.00
9307;BME280;4691;47.612;7.610;2023-04-19T11:29:13;98931.75;;;14.27;100.00
9307;BME280;4691;47.612;7.610;2023-04-19T11:31:39;98924.69;;;14.46;100.00
9307;BME280;4691;47.612;7.610;2023-04-19T11:34:04;98932.50;;;14.68;100.00
9307;BME280;4691;47.612;7.610;2023-04-19T11:36:30;98925.28;;;14.78;100.00
9307;BME280;4691;47.612;7.610;2023-04-19T11:38:56;98924.94;;;15.01;100.00
9307;BME280;4691;47.612;7.610;2023-04-19T11:41:22;98933.63;;;14.75;100.00
9307;BME280;4691;47.612;7.610;2023-04-19T11:43:47;98940.81;;;14.94;100.00
9307;BME280;4691;47.612;7.610;2023-04-19T11:46:13;98937.75;;;14.70;100.00
9307;BME280;4691;47.612;7.610;2023-04-19T11:48:49;98935.75;;;14.81;100.00
9307;BME280;4691;47.612;7.610;2023-04-19T11:51:16;98927.63;;;15.01;100.00
9307;BME280;4691;47.612;7.610;2023-04-19T11:53:41;98927.44;;;15.22;100.00
9307;BME280;4691;47.612;7.610;2023-04-19T11:56:08;98922.66;;;15.06;100.00
9307;BME280;4691;47.612;7.610;2023-04-19T11:58:46;98931.03;;;15.03;100.00
9307;BME280;4691;47.612;7.610;2023-04-19T12:01:16;98927.81;;;15.37;100.00
9307;BME280;4691;47.612;7.610;2023-04-19T12:03:51;98928.19;;;15.52;100.00
9307;BME280;4691;47.612;7.610;2023-04-19T12:06:25;98927.59;;;15.58;100.00
9307;BME280;4691;47.612;7.610;2023-04-19T12:08:53;98932.53;;;15.62;100.00
9307;BME280;4691;47.612;7.610;2023-04-19T12:11:24;98927.41;;;15.97;100.00
9307;BME280;4691;47.612;7.610;2023-04-19T12:14:14;98927.81;;;16.02;100.00
9307;BME280;4691;47.612;7.610;2023-04-19T12:16:39;98930.81;;;15.99;100.00
9307;BME280;4691;47.612;7.610;2023-04-19T12:19:15;98936.41;;;16.51;100.00
9307;BME280;4691;47.612;7.610;2023-04-19T12:21:42;98932.22;;;16.92;100.00
9307;BME280;4691;47.612;7.610;2023-04-19T12:24:08;98944.34;;;16.88;100.00
9307;BME280;4691;47.612;7.610;2023-04-19T12:26:33;98940.53;;;17.51;100.00
9307;BME280;4691;47.612;7.610;2023-04-19T12:29:00;98939.09;;;17.65;100.00
9307;BME280;4691;47.612;7.610;2023-04-19T12:31:26;98935.56;;;17.38;100.00
9307;BME280;4691;47.612;7.610;2023-04-19T12:33:52;98932.38;;;17.43;100.00
9307;BME280;4691;47.612;7.610;2023-04-19T12:36:18;98937.19;;;17.92;100.00
9307;BME280;4691;47.612;7.610;2023-04-19T12:38:43;98943.72;;;17.47;100.00
9307;BME280;4691;47.612;7.610;2023-04-19T12:41:09;98929.34;;;18.39;100.00
9307;BME280;4691;47.612;7.610;2023-04-19T12:43:35;98914.66;;;19.15;100.00
9307;BME280;4691;47.612;7.610;2023-04-19T12:46:00;98937.94;;;19.49;100.00
9307;BME280;4691;47.612;7.610;2023-04-19T12:48:26;98962.44;;;19.17;100.00
9307;BME280;4691;47.612;7.610;2023-04-19T12:50:52;98973.22;;;18.59;100.00
9307;BME280;4691;47.612;7.610;2023-04-19T12:53:17;98998.28;;;17.76;100.00
9307;BME280;4691;47.612;7.610;2023-04-19T12:55:43;99000.88;;;16.54;100.00
9307;BME280;4691;47.612;7.610;2023-04-19T12:58:15;99007.78;;;15.93;100.00
9307;BME280;4691;47.612;7.610;2023-04-19T13:00:41;98987.84;;;15.66;100.00
9307;BME280;4691;47.612;7.610;2023-04-19T13:03:06;98986.91;;;15.48;100.00
9307;BME280;4691;47.612;7.610;2023-04-19T13:05:31;98970.00;;;14.99;100.00
9307;BME280;4691;47.612;7.610;2023-04-19T13:07:57;98965.47;;;14.99;100.00
9307;BME280;4691;47.612;7.610;2023-04-19T13:10:22;98964.31;;;15.21;100.00
9307;BME280;4691;47.612;7.610;2023-04-19T13:12:47;98944.75;;;15.19;100.00
9307;BME280;4691;47.612;7.610;2023-04-19T13:15:13;98941.31;;;15.27;100.00
9307;BME280;4691;47.612;7.610;2023-04-19T13:17:38;98939.34;;;15.19;100.00
9307;BME280;4691;47.612;7.610;2023-04-19T13:20:03;98935.72;;;15.01;100.00
9307;BME280;4691;47.612;7.610;2023-04-19T13:22:31;98935.16;;;14.97;100.00
9307;BME280;4691;47.612;7.610;2023-04-19T13:24:57;98929.66;;;14.79;100.00
9307;BME280;4691;47.612;7.610;2023-04-19T13:27:22;98920.00;;;14.87;100.00